sensor_id;sensor_type;location;lat;lon;timestamp;pressure;altitude;pressure_sealevel;temperature;humidity
72636;BME280;60679;48.888;15.544;2024-01-15T00:02:06;94690.22;;;-4.06;71.12
72636;BME280;60679;48.888;15.544;2024-01-15T00:04:37;94685.09;;;-4.08;71.00
72636;BME280;60679;48.888;15.544;2024-01-15T00:07:03;94683.28;;;-4.07;71.11
72636;BME280;60679;48.888;15.544;2024-01-15T00:09:28;94691.00;;;-4.06;71.12
72636;BME280;60679;48.888;15.544;2024-01-15T00:11:56;94691.00;;;-4.06;71.12
72636;BME280;60679;48.888;15.544;2024-01-15T00:14:22;94679.69;;;-4.06;71.33
72636;BME280;60679;48.888;15.544;2024-01-15T00:16:47;94683.63;;;-4.11;70.96
72636;BME280;60679;48.888;15.544;2024-01-15T00:19:15;94666.72;;;-4.16;70.55
72636;BME280;60679;48.888;15.544;2024-01-15T00:21:41;94663.88;;;-4.15;71.00
72636;BME280;60679;48.888;15.544;2024-01-15T00:24:06;94653.69;;;-4.18;70.94
72636;BME280;60679;48.888;15.544;2024-01-15T00:26:31;94650.31;;;-4.26;70.95
72636;BME280;60679;48.888;15.544;2024-01-15T00:28:57;94647.22;;;-4.30;70.88
72636;BME280;60679;48.888;15.544;2024-01-15T00:31:22;94643.09;;;-4.32;71.01
72636;BME280;60679;48.888;15.544;2024-01-15T00:33:48;94648.88;;;-4.37;70.95
72636;BME280;60679;48.888;15.544;2024-01-15T00:36:13;94640.63;;;-4.34;71.32
72636;BME280;60679;48.888;15.544;2024-01-15T00:38:39;94644.88;;;-4.25;71.10
72636;BME280;60679;48.888;15.544;2024-01-15T00:41:05;94641.34;;;-4.17;71.08
72636;BME280;60679;48.888;15.544;2024-01-15T00:43:30;94643.53;;;-4.21;71.22
72636;BME280;60679;48.888;15.544;2024-01-15T00:45:56;94633.78;;;-4.20;71.14
72636;BME280;60679;48.888;15.544;2024-01-15T00:48:21;94644.13;;;-4.11;71.31
72636;BME280;60679;48.888;15.544;2024-01-15T00:50:46;94635.81;;;-3.99;71.37
72636;BME280;60679;48.888;15.544;2024-01-15T00:53:12;94620.22;;;-3.86;71.08
72636;BME280;60679;48.888;15.544;2024-01-15T00:55:37;94622.16;;;-3.80;71.40
72636;BME280;60679;48.888;15.544;2024-01-15T00:58:03;94616.88;;;-3.80;71.14
72636;BME280;60679;48.888;15.544;2024-01-15T01:00:29;94612.41;;;-3.80;70.74
72636;BME280;60679;48.888;15.544;2024-01-15T01:02:54;94607.63;;;-3.76;71.20
72636;BME280;60679;48.888;15.544;2024-01-15T01:05:19;94607.44;;;-3.75;71.22
72636;BME280;60679;48.888;15.544;2024-01-15T01:07:45;94607.28;;;-3.73;71.10
72636;BME280;60679;48.888;15.544;2024-01-15T01:10:10;94608.44;;;-3.76;71.11
72636;BME280;60679;48.888;15.544;2024-01-15T01:12:36;94602.06;;;-3.81;71.03
72636;BME280;60679;48.888;15.544;2024-01-15T01:15:01;94598.13;;;-3.85;71.18
72636;BME280;60679;48.888;15.544;2024-01-15T01:17:28;94599.13;;;-3.86;71.24
72636;BME280;60679;48.888;15.544;2024-01-15T01:19:53;94594.31;;;-3.83;71.19
72636;BME280;60679;48.888;15.544;2024-01-15T01:22:18;94586.88;;;-3.79;71.17
72636;BME280;60679;48.888;15.544;2024-01-15T01:24:44;94590.00;;;-3.76;71.13
72636;BME280;60679;48.888;15.544;2024-01-15T01:27:09;94583.25;;;-3.78;71.09
72636;BME280;60679;48.888;15.544;2024-01-15T01:29:35;94575.59;;;-3.88;70.95
72636;BME280;60679;48.888;15.544;2024-01-15T01:32:00;94574.66;;;-3.95;70.99
72636;BME280;60679;48.888;15.544;2024-01-15T01:34:25;94569.63;;;-4.04;71.01
72636;BME280;60679;48.888;15.544;2024-01-15T01:36:51;94569.53;;;-4.11;71.12
72636;BME280;60679;48.888;15.544;2024-01-15T01:39:16;94564.13;;;-4.18;71.15
72636;BME280;60679;48.888;15.544;2024-01-15T01:41:42;94550.38;;;-4.28;71.06
72636;BME280;60679;48.888;15.544;2024-01-15T01:44:08;94559.53;;;-4.38;71.06
72636;BME280;60679;48.888;15.544;2024-01-15T01:46:34;94577.81;;;-4.45;71.03
72636;BME280;60679;48.888;15.544;2024-01-15T01:49:04;94578.50;;;-4.51;71.10
72636;BME280;60679;48.888;15.544;2024-01-15T01:51:31;94579.41;;;-4.58;71.03
72636;BME280;60679;48.888;15.544;2024-01-15T01:53:58;94577.09;;;-4.61;71.00
72636;BME280;60679;48.888;15.544;2024-01-15T01:56:24;94570.50;;;-4.57;71.18
72636;BME280;60679;48.888;15.544;2024-01-15T01:58:49;94545.59;;;-4.47;71.16
72636;BME280;60679;48.888;15.544;2024-01-15T02:01:15;94549.84;;;-4.46;71.14
72636;BME280;60679;48.888;15.544;2024-01-15T02:03:42;94545.47;;;-4.53;71.13
72636;BME280;60679;48.888;15.544;2024-01-15T02:06:08;94543.88;;;-4.62;71.05
72636;BME280;60679;48.888;15.544;2024-01-15T02:08:34;94554.03;;;-4.59;71.17
72636;BME280;60679;48.888;15.544;2024-01-15T02:11:00;94558.03;;;-4.63;71.17
72636;BME280;60679;48.888;15.544;2024-01-15T02:13:25;94556.25;;;-4.71;71.08
72636;BME280;60679;48.888;15.544;2024-01-15T02:15:50;94553.47;;;-4.70;71.36
72636;BME280;60679;48.888;15.544;2024-01-15T02:18:16;94564.78;;;-4.61;71.45
72636;BME280;60679;48.888;15.544;2024-01-15T02:20:41;94565.78;;;-4.39;71.52
72636;BME280;60679;48.888;15.544;2024-01-15T02:23:10;94560.78;;;-4.34;71.58
72636;BME280;60679;48.888;15.544;2024-01-15T02:25:37;94567.72;;;-4.33;71.14
72636;BME280;60679;48.888;15.544;2024-01-15T02:28:04;94563.44;;;-4.34;71.17
72636;BME280;60679;48.888;15.544;2024-01-15T02:30:30;94561.31;;;-4.39;71.10
72636;BME280;60679;48.888;15.544;2024-01-15T02:32:56;94562.84;;;-4.44;70.98
72636;BME280;60679;48.888;15.544;2024-01-15T02:35:21;94565.69;;;-4.54;70.96
72636;BME280;60679;48.888;15.544;2024-01-15T02:37:47;94564.13;;;-4.63;71.03
72636;BME280;60679;48.888;15.544;2024-01-15T02:40:12;94557.66;;;-4.83;70.75
72636;BME280;60679;48.888;15.544;2024-01-15T02:42:37;94560.28;;;-5.14;70.72
72636;BME280;60679;48.888;15.544;2024-01-15T02:45:03;94565.59;;;-5.38;71.05
72636;BME280;60679;48.888;15.544;2024-01-15T02:47:29;94565.47;;;-5.45;71.24
72636;BME280;60679;48.888;15.544;2024-01-15T02:49:54;94560.66;;;-5.25;71.36
72636;BME280;60679;48.888;15.544;2024-01-15T02:52:20;94550.66;;;-4.99;71.36
72636;BME280;60679;48.888;15.544;2024-01-15T02:54:45;94546.31;;;-4.84;71.05
72636;BME280;60679;48.888;15.544;2024-01-15T02:57:10;94540.84;;;-4.82;70.94
72636;BME280;60679;48.888;15.544;2024-01-15T02:59:36;94545.66;;;-4.86;71.14
72636;BME280;60679;48.888;15.544;2024-01-15T03:02:01;94542.16;;;-4.78;71.16
72636;BME280;60679;48.888;15.544;2024-01-15T03:04:26;94539.69;;;-4.80;71.07
72636;BME280;60679;48.888;15.544;2024-01-15T03:06:52;94536.13;;;-4.87;70.96
72636;BME280;60679;48.888;15.544;2024-01-15T03:09:17;94536.16;;;-4.95;70.96
72636;BME280;60679;48.888;15.544;2024-01-15T03:11:43;94538.63;;;-4.93;71.05
72636;BME280;60679;48.888;15.544;2024-01-15T03:14:08;94537.44;;;-4.83;71.09
72636;BME280;60679;48.888;15.544;2024-01-15T03:16:33;94541.09;;;-4.92;70.94
72636;BME280;60679;48.888;15.544;2024-01-15T03:18:59;94542.94;;;-5.00;70.97
72636;BME280;60679;48.888;15.544;2024-01-15T03:21:24;94537.09;;;-4.88;71.03
72636;BME280;60679;48.888;15.544;2024-01-15T03:23:49;94528.91;;;-4.93;70.96
72636;BME280;60679;48.888;15.544;2024-01-15T03:26:15;94531.84;;;-4.88;71.17
72636;BME280;60679;48.888;15.544;2024-01-15T03:28:40;94524.91;;;-4.81;71.23
72636;BME280;60679;48.888;15.544;2024-01-15T03:31:07;94532.13;;;-4.75;71.17
72636;BME280;60679;48.888;15.544;2024-01-15T03:33:32;94527.31;;;-4.71;71.34
72636;BME280;60679;48.888;15.544;2024-01-15T03:35:58;94530.88;;;-4.64;70.96
72636;BME280;60679;48.888;15.544;2024-01-15T03:38:24;94533.00;;;-4.59;71.14
72636;BME280;60679;48.888;15.544;2024-01-15T03:40:49;94529.50;;;-4.52;71.13
72636;BME280;60679;48.888;15.544;2024-01-15T03:43:14;94544.94;;;-4.49;71.12
72636;BME280;60679;48.888;15.544;2024-01-15T03:45:40;94548.09;;;-4.53;71.09
72636;BME280;60679;48.888;15.544;2024-01-15T03:48:05;94553.59;;;-4.63;71.12
72636;BME280;60679;48.888;15.544;2024-01-15T03:50:31;94554.59;;;-4.64;71.08
72636;BME280;60679;48.888;15.544;2024-01-15T03:52:56;94547.50;;;-4.63;71.00
72636;BME280;60679;48.888;15.544;2024-01-15T03:55:22;94553.81;;;-4.73;70.82
72636;BME280;60679;48.888;15.544;2024-01-15T03:57:47;94554.09;;;-4.68;71.16
72636;BME280;60679;48.888;15.544;2024-01-15T04:00:14;94551.75;;;-4.62;71.20
72636;BME280;60679;48.888;15.544;2024-01-15T04:02:40;94546.97;;;-4.59;71.05
72636;BME280;60679;48.888;15.544;2024-01-15T04:05:05;94536.38;;;-4.74;71.03
72636;BME280;60679;48.888;15.544;2024-01-15T04:07:30;94536.03;;;-4.71;71.12
72636;BME280;60679;48.888;15.544;2024-01-15T04:09:56;94533.19;;;-4.61;71.13
72636;BME280;60679;48.888;15.544;2024-01-15T04:12:21;94527.09;;;-4.61;71.15
72636;BME280;60679;48.888;15.544;2024-01-15T04:14:46;94530.34;;;-4.59;71.12
72636;BME280;60679;48.888;15.544;2024-01-15T04:17:12;94531.94;;;-4.50;71.39
72636;BME280;60679;48.888;15.544;2024-01-15T04:19:37;94527.09;;;-4.39;71.38
72636;BME280;60679;48.888;15.544;2024-01-15T04:22:03;94533.75;;;-4.28;71.37
72636;BME280;60679;48.888;15.544;2024-01-15T04:24:28;94529.44;;;-4.21;71.30
72636;BME280;60679;48.888;15.544;2024-01-15T04:26:54;94530.06;;;-4.19;71.40
72636;BME280;60679;48.888;15.544;2024-01-15T04:29:19;94528.81;;;-4.09;71.24
72636;BME280;60679;48.888;15.544;2024-01-15T04:31:44;94519.28;;;-4.10;71.49
72636;BME280;60679;48.888;15.544;2024-01-15T04:34:10;94522.22;;;-4.04;71.49
72636;BME280;60679;48.888;15.544;2024-01-15T04:36:39;94517.91;;;-4.05;71.43
72636;BME280;60679;48.888;15.544;2024-01-15T04:39:05;94516.38;;;-4.00;71.46
72636;BME280;60679;48.888;15.544;2024-01-15T04:41:31;94511.41;;;-3.95;71.43
72636;BME280;60679;48.888;15.544;2024-01-15T04:43:56;94514.97;;;-3.88;71.41
72636;BME280;60679;48.888;15.544;2024-01-15T04:46:21;94518.06;;;-3.84;71.38
72636;BME280;60679;48.888;15.544;2024-01-15T04:48:47;94522.78;;;-3.80;71.34
72636;BME280;60679;48.888;15.544;2024-01-15T04:51:12;94519.44;;;-3.74;71.40
72636;BME280;60679;48.888;15.544;2024-01-15T04:53:37;94518.63;;;-3.74;71.17
72636;BME280;60679;48.888;15.544;2024-01-15T04:56:03;94524.09;;;-3.76;71.35
72636;BME280;60679;48.888;15.544;2024-01-15T04:58:28;94522.72;;;-3.72;71.33
72636;BME280;60679;48.888;15.544;2024-01-15T05:00:54;94518.25;;;-3.71;71.40
72636;BME280;60679;48.888;15.544;2024-01-15T05:03:20;94516.72;;;-3.66;71.35
72636;BME280;60679;48.888;15.544;2024-01-15T05:05:45;94510.47;;;-3.65;71.36
72636;BME280;60679;48.888;15.544;2024-01-15T05:08:11;94512.91;;;-3.63;71.25
72636;BME280;60679;48.888;15.544;2024-01-15T05:10:37;94497.91;;;-3.63;71.03
72636;BME280;60679;48.888;15.544;2024-01-15T05:13:02;94507.47;;;-3.62;71.25
72636;BME280;60679;48.888;15.544;2024-01-15T05:15:27;94521.53;;;-3.69;71.27
72636;BME280;60679;48.888;15.544;2024-01-15T05:17:56;94507.25;;;-3.75;71.19
72636;BME280;60679;48.888;15.544;2024-01-15T05:20:21;94523.16;;;-3.83;71.11
72636;BME280;60679;48.888;15.544;2024-01-15T05:22:47;94532.78;;;-3.90;71.10
72636;BME280;60679;48.888;15.544;2024-01-15T05:25:12;94514.50;;;-3.91;71.37
72636;BME280;60679;48.888;15.544;2024-01-15T05:27:38;94524.53;;;-3.87;71.37
72636;BME280;60679;48.888;15.544;2024-01-15T05:30:03;94536.69;;;-3.86;71.46
72636;BME280;60679;48.888;15.544;2024-01-15T05:32:29;94529.25;;;-3.82;71.36
72636;BME280;60679;48.888;15.544;2024-01-15T05:34:54;94519.59;;;-3.75;71.53
72636;BME280;60679;48.888;15.544;2024-01-15T05:37:22;94520.19;;;-3.65;71.45
72636;BME280;60679;48.888;15.544;2024-01-15T05:39:48;94526.91;;;-3.63;71.38
72636;BME280;60679;48.888;15.544;2024-01-15T05:42:13;94525.72;;;-3.60;71.39
72636;BME280;60679;48.888;15.544;2024-01-15T05:44:38;94527.38;;;-3.59;71.33
72636;BME280;60679;48.888;15.544;2024-01-15T05:47:04;94518.28;;;-3.57;71.36
72636;BME280;60679;48.888;15.544;2024-01-15T05:49:30;94518.53;;;-3.52;71.48
72636;BME280;60679;48.888;15.544;2024-01-15T05:51:55;94520.28;;;-3.44;71.43
72636;BME280;60679;48.888;15.544;2024-01-15T05:54:20;94524.47;;;-3.35;71.52
72636;BME280;60679;48.888;15.544;2024-01-15T05:56:46;94519.44;;;-3.30;71.47
72636;BME280;60679;48.888;15.544;2024-01-15T05:59:11;94523.75;;;-3.29;71.34
72636;BME280;60679;48.888;15.544;2024-01-15T06:01:36;94536.19;;;-3.23;71.39
72636;BME280;60679;48.888;15.544;2024-01-15T06:04:02;94533.66;;;-3.16;71.44
72636;BME280;60679;48.888;15.544;2024-01-15T06:06:27;94537.28;;;-3.17;71.32
72636;BME280;60679;48.888;15.544;2024-01-15T06:08:53;94543.41;;;-3.17;71.38
72636;BME280;60679;48.888;15.544;2024-01-15T06:11:18;94535.19;;;-3.07;71.49
72636;BME280;60679;48.888;15.544;2024-01-15T06:13:43;94536.00;;;-3.07;71.44
72636;BME280;60679;48.888;15.544;2024-01-15T06:16:15;94548.22;;;-3.06;71.46
72636;BME280;60679;48.888;15.544;2024-01-15T06:18:41;94534.81;;;-3.04;71.32
72636;BME280;60679;48.888;15.544;2024-01-15T06:21:07;94540.56;;;-3.01;71.37
72636;BME280;60679;48.888;15.544;2024-01-15T06:23:32;94532.63;;;-3.01;71.44
72636;BME280;60679;48.888;15.544;2024-01-15T06:25:57;94531.44;;;-2.98;71.45
72636;BME280;60679;48.888;15.544;2024-01-15T06:28:23;94535.72;;;-2.97;71.35
72636;BME280;60679;48.888;15.544;2024-01-15T06:30:48;94539.81;;;-2.95;71.50
72636;BME280;60679;48.888;15.544;2024-01-15T06:33:14;94542.72;;;-2.89;71.42
72636;BME280;60679;48.888;15.544;2024-01-15T06:35:39;94530.34;;;-2.89;71.34
72636;BME280;60679;48.888;15.544;2024-01-15T06:38:04;94540.53;;;-2.86;71.45
72636;BME280;60679;48.888;15.544;2024-01-15T06:40:29;94535.34;;;-2.79;71.34
72636;BME280;60679;48.888;15.544;2024-01-15T06:42:55;94550.16;;;-2.78;71.35
72636;BME280;60679;48.888;15.544;2024-01-15T06:45:20;94544.06;;;-2.79;71.46
72636;BME280;60679;48.888;15.544;2024-01-15T06:47:46;94542.97;;;-2.70;71.40
72636;BME280;60679;48.888;15.544;2024-01-15T06:50:11;94534.03;;;-2.69;71.40
72636;BME280;60679;48.888;15.544;2024-01-15T06:52:36;94543.59;;;-2.68;71.41
72636;BME280;60679;48.888;15.544;2024-01-15T06:55:02;94541.59;;;-2.66;71.16
72636;BME280;60679;48.888;15.544;2024-01-15T06:57:28;94552.59;;;-2.62;71.10
72636;BME280;60679;48.888;15.544;2024-01-15T06:59:53;94555.41;;;-2.64;70.91
72636;BME280;60679;48.888;15.544;2024-01-15T07:02:18;94571.63;;;-2.67;71.34
72636;BME280;60679;48.888;15.544;2024-01-15T07:04:44;94567.28;;;-2.60;71.02
72636;BME280;60679;48.888;15.544;2024-01-15T07:07:09;94568.88;;;-2.59;71.14
72636;BME280;60679;48.888;15.544;2024-01-15T07:09:34;94563.22;;;-2.56;71.18
72636;BME280;60679;48.888;15.544;2024-01-15T07:12:00;94571.00;;;-2.54;70.98
72636;BME280;60679;48.888;15.544;2024-01-15T07:14:25;94570.41;;;-2.50;70.88
72636;BME280;60679;48.888;15.544;2024-01-15T07:16:51;94576.28;;;-2.54;70.99
72636;BME280;60679;48.888;15.544;2024-01-15T07:19:17;94572.84;;;-2.48;71.08
72636;BME280;60679;48.888;15.544;2024-01-15T07:21:42;94575.34;;;-2.47;70.92
72636;BME280;60679;48.888;15.544;2024-01-15T07:24:08;94584.72;;;-2.44;70.92
72636;BME280;60679;48.888;15.544;2024-01-15T07:26:34;94568.28;;;-2.40;70.98
72636;BME280;60679;48.888;15.544;2024-01-15T07:29:00;94570.84;;;-2.31;71.03
72636;BME280;60679;48.888;15.544;2024-01-15T07:31:25;94567.41;;;-2.25;70.92
72636;BME280;60679;48.888;15.544;2024-01-15T07:33:50;94567.03;;;-2.22;70.80
72636;BME280;60679;48.888;15.544;2024-01-15T07:36:16;94572.78;;;-2.19;70.70
72636;BME280;60679;48.888;15.544;2024-01-15T07:38:41;94578.78;;;-2.10;70.61
72636;BME280;60679;48.888;15.544;2024-01-15T07:41:06;94574.09;;;-2.08;70.52
72636;BME280;60679;48.888;15.544;2024-01-15T07:43:32;94561.72;;;-2.08;70.61
72636;BME280;60679;48.888;15.544;2024-01-15T07:45:57;94561.34;;;-2.05;70.63
72636;BME280;60679;48.888;15.544;2024-01-15T07:48:23;94563.81;;;-2.03;70.45
72636;BME280;60679;48.888;15.544;2024-01-15T07:50:49;94566.44;;;-2.03;70.38
72636;BME280;60679;48.888;15.544;2024-01-15T07:53:14;94569.88;;;-2.03;70.49
72636;BME280;60679;48.888;15.544;2024-01-15T07:55:40;94563.22;;;-1.99;70.38
72636;BME280;60679;48.888;15.544;2024-01-15T07:58:05;94563.03;;;-1.97;70.52
72636;BME280;60679;48.888;15.544;2024-01-15T08:00:31;94561.81;;;-1.95;70.37
72636;BME280;60679;48.888;15.544;2024-01-15T12:53:50;94463.94;;;3.59;57.07
72636;BME280;60679;48.888;15.544;2024-01-15T12:56:15;94459.28;;;3.36;57.97
72636;BME280;60679;48.888;15.544;2024-01-15T12:58:40;94462.91;;;2.69;59.17
72636;BME280;60679;48.888;15.544;2024-01-15T13:01:06;94455.88;;;2.07;60.29
72636;BME280;60679;48.888;15.544;2024-01-15T13:03:31;94467.00;;;1.66;61.32
72636;BME280;60679;48.888;15.544;2024-01-15T13:05:56;94470.66;;;1.27;62.02
72636;BME280;60679;48.888;15.544;2024-01-15T13:08:22;94473.84;;;1.04;62.85
72636;BME280;60679;48.888;15.544;2024-01-15T13:10:50;94468.75;;;0.90;63.10
72636;BME280;60679;48.888;15.544;2024-01-15T13:13:17;94464.69;;;0.87;63.46
72636;BME280;60679;48.888;15.544;2024-01-15T13:15:42;94458.91;;;0.97;63.36
72636;BME280;60679;48.888;15.544;2024-01-15T13:18:08;94459.81;;;1.29;62.52
72636;BME280;60679;48.888;15.544;2024-01-15T13:20:33;94457.50;;;1.45;62.52
72636;BME280;60679;48.888;15.544;2024-01-15T13:22:59;94466.78;;;1.30;62.84
72636;BME280;60679;48.888;15.544;2024-01-15T13:25:24;94468.06;;;1.14;63.22
72636;BME280;60679;48.888;15.544;2024-01-15T13:27:50;94470.78;;;1.01;63.37
72636;BME280;60679;48.888;15.544;2024-01-15T13:30:15;94464.28;;;0.90;63.67
72636;BME280;60679;48.888;15.544;2024-01-15T13:32:41;94459.78;;;0.84;63.89
72636;BME280;60679;48.888;15.544;2024-01-15T13:35:06;94479.63;;;0.75;64.16
72636;BME280;60679;48.888;15.544;2024-01-15T13:37:34;94470.88;;;0.62;64.31
72636;BME280;60679;48.888;15.544;2024-01-15T13:40:02;94492.75;;;0.50;64.71
72636;BME280;60679;48.888;15.544;2024-01-15T13:42:28;94488.25;;;0.38;64.93
72636;BME280;60679;48.888;15.544;2024-01-15T13:44:54;94479.06;;;0.27;65.28
72636;BME280;60679;48.888;15.544;2024-01-15T13:47:19;94490.50;;;0.15;65.57
72636;BME280;60679;48.888;15.544;2024-01-15T13:49:45;94490.91;;;-0.02;65.98
72636;BME280;60679;48.888;15.544;2024-01-15T13:52:11;94492.72;;;-0.15;66.53
72636;BME280;60679;48.888;15.544;2024-01-15T13:54:37;94488.22;;;-0.21;66.86
72636;BME280;60679;48.888;15.544;2024-01-15T13:57:03;94490.66;;;-0.26;67.03
72636;BME280;60679;48.888;15.544;2024-01-15T13:59:31;94484.53;;;-0.33;67.12
72636;BME280;60679;48.888;15.544;2024-01-15T14:01:56;94495.09;;;-0.46;67.48
72636;BME280;60679;48.888;15.544;2024-01-15T14:04:22;94497.34;;;-0.56;67.84
72636;BME280;60679;48.888;15.544;2024-01-15T14:06:48;94490.97;;;-0.62;68.09
72636;BME280;60679;48.888;15.544;2024-01-15T14:09:13;94492.19;;;-0.65;68.01
72636;BME280;60679;48.888;15.544;2024-01-15T14:11:40;94488.09;;;-0.67;68.13
72636;BME280;60679;48.888;15.544;2024-01-15T14:14:05;94489.75;;;-0.66;67.96
72636;BME280;60679;48.888;15.544;2024-01-15T14:16:33;94485.66;;;-0.62;68.14
72636;BME280;60679;48.888;15.544;2024-01-15T14:18:58;94488.16;;;-0.54;68.15
72636;BME280;60679;48.888;15.544;2024-01-15T14:21:24;94492.63;;;-0.54;67.97
72636;BME280;60679;48.888;15.544;2024-01-15T14:23:49;94492.25;;;-0.51;68.05
72636;BME280;60679;48.888;15.544;2024-01-15T14:26:15;94493.69;;;-0.49;68.07
72636;BME280;60679;48.888;15.544;2024-01-15T14:28:40;94494.25;;;-0.53;68.00
72636;BME280;60679;48.888;15.544;2024-01-15T14:31:05;94497.94;;;-0.54;68.03
72636;BME280;60679;48.888;15.544;2024-01-15T14:33:31;94493.66;;;-0.55;68.09
72636;BME280;60679;48.888;15.544;2024-01-15T14:35:57;94497.31;;;-0.63;68.06
72636;BME280;60679;48.888;15.544;2024-01-15T14:38:22;94489.13;;;-0.68;68.23
72636;BME280;60679;48.888;15.544;2024-01-15T14:40:51;94488.91;;;-0.73;68.20
72636;BME280;60679;48.888;15.544;2024-01-15T14:43:16;94484.63;;;-0.74;68.41
72636;BME280;60679;48.888;15.544;2024-01-15T14:45:41;94496.19;;;-0.82;68.47
72636;BME280;60679;48.888;15.544;2024-01-15T14:48:08;94487.84;;;-0.85;68.78
72636;BME280;60679;48.888;15.544;2024-01-15T14:50:34;94502.69;;;-0.91;68.81
72636;BME280;60679;48.888;15.544;2024-01-15T14:52:59;94503.28;;;-0.95;69.18
72636;BME280;60679;48.888;15.544;2024-01-15T14:55:24;94502.00;;;-1.06;69.22
72636;BME280;60679;48.888;15.544;2024-01-15T14:57:50;94511.72;;;-1.20;69.54
72636;BME280;60679;48.888;15.544;2024-01-15T15:00:18;94514.91;;;-1.31;69.72
72636;BME280;60679;48.888;15.544;2024-01-15T15:02:43;94520.16;;;-1.37;69.72
72636;BME280;60679;48.888;15.544;2024-01-15T15:05:09;94520.94;;;-1.43;69.90
72636;BME280;60679;48.888;15.544;2024-01-15T15:07:35;94527.00;;;-1.49;70.35
72636;BME280;60679;48.888;15.544;2024-01-15T15:10:02;94531.81;;;-1.59;70.40
72636;BME280;60679;48.888;15.544;2024-01-15T15:12:30;94538.06;;;-1.67;70.47
72636;BME280;60679;48.888;15.544;2024-01-15T15:14:55;94539.47;;;-1.71;70.63
72636;BME280;60679;48.888;15.544;2024-01-15T15:17:21;94539.00;;;-1.75;70.75
72636;BME280;60679;48.888;15.544;2024-01-15T15:19:47;94547.38;;;-1.71;70.84
72636;BME280;60679;48.888;15.544;2024-01-15T15:22:12;94548.38;;;-1.72;70.80
72636;BME280;60679;48.888;15.544;2024-01-15T15:24:38;94536.19;;;-1.73;70.49
72636;BME280;60679;48.888;15.544;2024-01-15T15:27:04;94536.63;;;-1.69;70.77
72636;BME280;60679;48.888;15.544;2024-01-15T15:29:31;94544.38;;;-1.68;70.95
72636;BME280;60679;48.888;15.544;2024-01-15T15:31:56;94538.06;;;-1.67;71.10
72636;BME280;60679;48.888;15.544;2024-01-15T15:34:22;94542.53;;;-1.67;70.88
72636;BME280;60679;48.888;15.544;2024-01-15T15:36:47;94543.75;;;-1.70;71.13
72636;BME280;60679;48.888;15.544;2024-01-15T15:39:12;94555.53;;;-1.72;71.00
72636;BME280;60679;48.888;15.544;2024-01-15T15:41:44;94558.97;;;-1.72;71.16
72636;BME280;60679;48.888;15.544;2024-01-15T15:44:09;94557.34;;;-1.73;71.16
72636;BME280;60679;48.888;15.544;2024-01-15T15:46:40;94563.66;;;-1.74;71.20
72636;BME280;60679;48.888;15.544;2024-01-15T15:49:05;94572.16;;;-1.79;71.23
72636;BME280;60679;48.888;15.544;2024-01-15T15:51:34;94580.28;;;-1.80;71.38
72636;BME280;60679;48.888;15.544;2024-01-15T15:54:03;94576.81;;;-1.81;71.57
72636;BME280;60679;48.888;15.544;2024-01-15T15:56:33;94573.38;;;-1.81;71.40
72636;BME280;60679;48.888;15.544;2024-01-15T15:59:06;94573.53;;;-1.83;71.39
72636;BME280;60679;48.888;15.544;2024-01-15T16:01:34;94569.81;;;-1.88;71.48
72636;BME280;60679;48.888;15.544;2024-01-15T16:04:00;94568.75;;;-1.94;71.51
72636;BME280;60679;48.888;15.544;2024-01-15T16:06:25;94577.06;;;-1.97;71.63
72636;BME280;60679;48.888;15.544;2024-01-15T16:08:51;94585.00;;;-1.97;71.41
72636;BME280;60679;48.888;15.544;2024-01-15T16:11:16;94579.53;;;-1.95;71.56
72636;BME280;60679;48.888;15.544;2024-01-15T16:13:43;94585.81;;;-1.96;71.61
72636;BME280;60679;48.888;15.544;2024-01-15T16:16:08;94582.81;;;-1.93;71.70
72636;BME280;60679;48.888;15.544;2024-01-15T16:18:34;94577.13;;;-1.90;71.69
72636;BME280;60679;48.888;15.544;2024-01-15T16:20:59;94568.97;;;-1.95;71.69
72636;BME280;60679;48.888;15.544;2024-01-15T16:23:25;94578.34;;;-1.93;71.62
72636;BME280;60679;48.888;15.544;2024-01-15T16:25:51;94573.06;;;-1.93;71.81
72636;BME280;60679;48.888;15.544;2024-01-15T16:28:16;94576.13;;;-1.89;71.71
72636;BME280;60679;48.888;15.544;2024-01-15T16:30:41;94576.75;;;-1.87;71.83
72636;BME280;60679;48.888;15.544;2024-01-15T16:33:07;94580.84;;;-1.85;71.85
72636;BME280;60679;48.888;15.544;2024-01-15T16:35:34;94574.56;;;-1.84;71.82
72636;BME280;60679;48.888;15.544;2024-01-15T16:37:59;94580.22;;;-1.87;71.79
72636;BME280;60679;48.888;15.544;2024-01-15T16:40:26;94571.09;;;-1.84;71.78
72636;BME280;60679;48.888;15.544;2024-01-15T16:42:51;94574.97;;;-1.80;71.85
72636;BME280;60679;48.888;15.544;2024-01-15T16:45:17;94572.91;;;-1.85;71.76
72636;BME280;60679;48.888;15.544;2024-01-15T16:47:43;94573.28;;;-1.88;71.76
72636;BME280;60679;48.888;15.544;2024-01-15T16:50:08;94569.28;;;-1.84;71.85
72636;BME280;60679;48.888;15.544;2024-01-15T16:52:34;94569.06;;;-1.82;71.75
72636;BME280;60679;48.888;15.544;2024-01-15T16:55:00;94579.28;;;-1.79;71.82
72636;BME280;60679;48.888;15.544;2024-01-15T16:57:25;94582.66;;;-1.85;71.79
72636;BME280;60679;48.888;15.544;2024-01-15T16:59:50;94583.63;;;-1.93;71.74
72636;BME280;60679;48.888;15.544;2024-01-15T17:02:16;94587.09;;;-1.92;72.12
72636;BME280;60679;48.888;15.544;2024-01-15T17:04:42;94591.69;;;-2.01;71.93
72636;BME280;60679;48.888;15.544;2024-01-15T17:07:07;94591.00;;;-2.09;72.08
72636;BME280;60679;48.888;15.544;2024-01-15T17:09:33;94583.59;;;-2.14;72.15
72636;BME280;60679;48.888;15.544;2024-01-15T17:11:58;94591.75;;;-2.15;72.47
72636;BME280;60679;48.888;15.544;2024-01-15T17:14:24;94585.84;;;-2.17;72.48
72636;BME280;60679;48.888;15.544;2024-01-15T17:16:50;94596.78;;;-2.20;72.50
72636;BME280;60679;48.888;15.544;2024-01-15T17:19:15;94593.47;;;-2.22;72.70
72636;BME280;60679;48.888;15.544;2024-01-15T17:21:41;94594.66;;;-2.25;72.37
72636;BME280;60679;48.888;15.544;2024-01-15T17:24:09;94598.97;;;-2.24;72.44
72636;BME280;60679;48.888;15.544;2024-01-15T17:26:35;94603.06;;;-2.21;72.57
72636;BME280;60679;48.888;15.544;2024-01-15T17:29:00;94591.91;;;-2.17;72.55
72636;BME280;60679;48.888;15.544;2024-01-15T17:31:25;94595.00;;;-2.13;72.71
72636;BME280;60679;48.888;15.544;2024-01-15T17:33:52;94588.66;;;-2.19;72.85